San Francisco International Airport
KSFO : now visible

Airfield :











YOU CAN JOIN US ON...

 
LOGIN :

Register | Disclaimer

   EN    FR    IT 

 









Legend :    VFR   Marginal VFR   IFR   Intensive IFR   Very Intensive IFR
Visi :
Ceiling :
>= 8 km
>= 3000ft
5 to 8 km
1000 to 3000 ft
1500m to 5 km
500 to 1000 ft
800 to 1500m
200 to 500 ft
< 800m
< 200 ft
Symbols :   Thunderstorms  Fog  Heavy snow  Heavy precipitations  Wind > 20 kt






- Airport Elevation : 13 ft
- IATA code : SFO


KSFO - San Francisco International

CURRENT METAR :
  • 270356Z 30014KT 10SM SCT200 19/13 A2993 RMK AO2 SLP136 T01940128

EXPIRED METARs :
  • 270256Z 29017KT 10SM BKN200 19/13 A2993 RMK AO2 SLP136 T01940128 55009
  • 270156Z 28015KT 10SM BKN200 19/13 A2993 RMK AO2 PK WND 28026/0110 SLP135 T01940128
  • 270056Z 29019KT 10SM BKN200 21/13 A2994 RMK AO2 PK WND 28028/0024 SLP137 T02110128

TAF KSFO
Valid from the 27 at 03:00 until the 28 at 06:00 UTC


270253Z 2703/2806 28015KT P6SM FEW200
FM270600 28010KT P6SM FEW200
FM270800 29007KT 6SM FU HZ FEW010
FM271000 VRB05KT 6SM FU HZ FEW010
FM272000 33008KT P6SM SKC
FM272300 31015KT P6SM SKC
KZOA FIR / North America



MET'MAP, your aeronautical weather chart ! - Copyright ORBIFLY December 2007 - Disclaimer

ORBIFLY MET'MAP TEAM :

Programming & Development : Alexandra Zaïnal
Concept & original design : Baudouin d'Aumeries
Assistance for programming : Marc-Olivier Méhu
Technical & hardware support : Manuel Goepfert

Contact : metmap@orbifly.com




SOURCES & CREDITS :

   NOAA       Earth
Advisory